Flight Track Log - Related Links

Times and Time Zones

All times are in EDT time to prevent confusion due to time zone crossing. See the SKW5500 flight status page for this flight to view local times or setup timezone preferences in your user account.

Time Position Orientation Groundspeed Altitude Reporting Facility
EDT Latitude Longitude Course Direction KTS MPH feet Rate Location/Type
06:40PM 39.2672 -106.8950 90° East 189 217 9,900  Level Denver Center
06:41PM 39.2825 -106.9747 284° West 225 259 12,200 2,323 Climbing Denver Center
06:42PM 39.4070 -106.7868 101° East  Level FlightAware Approximate
06:42PM 39.3408 -106.9914 348° North 256 295 14,700  Level Denver Center
06:43PM 39.3876 -106.6609 101° East  Level FlightAware Approximate
06:43PM 39.3575 -106.8886 78° East 310 357 16,200  Level Denver Center
06:44PM 39.3639 -106.5363 104° East  Level FlightAware Approximate
06:44PM 39.3575 -106.7669 90° East 341 392 18,200  Level Denver Center
06:45PM 39.3333 -106.4260 90° East  Level FlightAware Approximate
06:45PM 39.3542 -106.6042 91° East 374 430 20,500  Level Denver Center
06:46PM 39.3489 -106.4556 93° East 397 457 22,400 1,935 Climbing Denver Center
06:47PM 39.3286 -106.3167 101° East 409 471 24,500 1,268 Climbing Denver Center
06:48PM 39.3053 -106.1567 101° East 412 474 25,000 244 Climbing Denver Center
06:49PM 39.2706 -106.0269 109° East 386 444 25,000 -387 Level Denver Center
06:50PM 39.2258 -105.8983 114° Southeast 389 448 24,200 -968 Descending Denver Center
06:51PM 39.2317 -105.7683 87° East 382 440 23,000 -1,463 Descending Denver Center
06:52PM 39.2911 -105.6606 55° Northeast 364 419 21,200 -1,756 Descending Denver Center
06:53PM 39.3514 -105.5578 53° Northeast 358 412 19,400 -1,839 Descending Denver Center
06:54PM 39.3981 -105.4378 63° Northeast 348 400 17,400 -1,610 Descending Denver Center
06:55PM 39.4028 -105.3197 87° East 327 376 16,100 -1,220 Descending Denver Center
06:56PM 39.4081 -105.1914 87° East 334 384 14,900 -1,113 Descending Denver Center
06:57PM 39.4136 -105.0772 86° East 322 371 13,800 -919 Descending Denver Center
06:58PM 39.4261 -104.9739 81° East 302 348 13,000 -878 Descending Denver Center
06:59PM 39.4764 -104.8997 49° Northeast 260 299 12,000 -537 Descending Denver Center
07:00PM 39.5239 -104.8311 48° Northeast 257 296 11,900 -683 Descending Denver Center
07:02PM 39.5850 -104.7853 30° Northeast 254 292 10,600 -1,317 Descending Denver Center
07:03PM 39.6483 -104.7386 30° Northeast 245 282 9,200 -1,258 Descending Denver Center
07:04PM 39.7019 -104.6981 30° Northeast 219 252 8,000 -1,122 Descending Denver Center
07:05PM 39.7542 -104.6633 27° Northeast 197 227 6,900 -878 Descending Denver Center
07:06PM 39.7931 -104.6608 North 143 165 6,200 -677 Descending Denver Center

Login

Don't have an account? Register now (free) for customized features, flight alerts, and more!